aviador You're here:

CYTE Decoded Metar

CAPE DORSET in NU, CANADA
Report Time2018-05-26 15:00:00
UTC Time2018-05-26 15:42:52
Flight Rules mvfr MVFR
Wind280° at 13 Gusting to 18 kt
W.Decomp.*RWY 31: 13.0 kt HW 0.7 kt LCW
W.Rank280° ranks 3
Current wind is above 280° avg. (9.7)
Visibility9999 m
Phenomena:N/A
Clouds:Overcast 014 Hf
Expected CloudBase > 1,200 ft AGL from Temp-Dew spread
Ceiling1,400 ft
Temp-4°C (ISA -19)
Dew Point-7°C (80% RH)
AAT-11.5°C
QNH1016 hPa
Density Alt-2,205 ft
Elevation154 ft
Report Wrong Elevation
Raw Report
CYTE 261500Z AUTO 28013G18KT 9SM OVC014 M04/M07 A3001 RMK
SLP168=

Extra information for CYTE:More info

Metar Taf Metar & Taf Last 4 Metars F.Rules Stats Wind Profile Meteogram Temp Stats Airport Information Weather charts Add Link Nearby VenuesMetar ALERT Operation Metar Decoded Social comments